Terminal Aerodrome Forecast
Issued by NWS Cleveland, OH

Home | Current Version | Previous Version | Graphics & Text | Print | Product List | Glossary Off
Versions: 1 2 3 4 5 6 7 8 9 10 11 12 13 14

000
FTUS41 KCLE 201700
TAFERI
TAF
KERI 201729Z 2018/2118 VRB03KT P6SM OVC022=

USA.gov is the U.S. government's official web portal to all federal, state and local government web resources and services.